Aeroporto :
LOGIN :

Iscrizione | Disclaimer

   EN    FR    IT 

 










Sommario :    VFR   VFR Marginale   IFR   IFR Intensivo   IFR Molto Intensivo
Visibilità : 
Base nubi : 
>= 8 km
>= 3000ft
5 / 8 km
1000 / 3000 ft
1500m / 5 km
500 / 1000 ft
800 / 1500m
200 / 500 ft
< 800m
< 200 ft
Simboli :   Temporali  Nebbia  Neve Forte  Precipitazioni Forti  Vento > 20 kt
SIGMETs :   Varie  Temporali  Ghiacco  Turbolenza  Onda orograficha  Ceneri Vulcaniche







- Altitudine del aeroporto : 1 ft
- Carte del aeroporto


EGCK - Caernarfon

ULTIMO METAR :
  • 260220Z AUTO 18011KT 9999 OVC028/// 15/13 Q1013

METARs OBSOLETI :
  • 260150Z AUTO 18011KT 9999 OVC030/// 15/13 Q1014
  • 260120Z AUTO 20008KT 9999 -RA FEW017/// SCT022/// OVC033/// 15/13 Q1014
  • 260050Z AUTO 21011KT 9999 -RA FEW002/// SCT011/// OVC019/// 15/13 Q1015
  • 260020Z AUTO 19010KT 9999 OVC023/// 15/13 Q1015
  • 252350Z AUTO 18010KT 9999 FEW007/// OVC021/// 14/13 Q1015

TAF TAF EGCK
Valido dal 26 a 03 ore il 26 a 12 ore UTC


260159Z 2603/2612 18009KT 9999 SCT030
BECMG 2603/2606 23015G25KT
TEMPO 2603/2610 6000 RA BKN014
PROB40
TEMPO 2603/2609 3000 +RA BKN003
BECMG 2609/2612 29015G25KT
Nessun NOTAM noto per questo aeroporto.



MetMap, La meteo Aeronautica in un colpo d'occhio ! - Copyright ORBIFLY Dicembre 2007 - Disclaimer

ORBIFLY MET'MAP TEAM :

Programmazione e sviluppo : Alexandra Zaïnal
Concezione e sviluppo : Baudouin d'Aumeries
Co-Programmazione e sviluppo : Marc-Olivier Méhu
Supporto tecnico e logistico : Manuel Goepfert
Aiuto per la traduzione : Arnaldo La Scala

Contatto : metmap@orbifly.com




FONTI E CREDITI :

   NOAA